createdAt,value
2019-04-05T00:00:02.542Z,1006.04
2019-04-05T00:05:02.488Z,1006.12
2019-04-05T00:10:02.888Z,1006.21
2019-04-05T00:15:14.573Z,1006.17
2019-04-05T00:20:02.774Z,1006.17
2019-04-05T00:25:03.125Z,1006.25
2019-04-05T00:30:02.540Z,1006.36
2019-04-05T00:35:02.878Z,1006.38
2019-04-05T00:40:03.332Z,1006.47
2019-04-05T00:45:02.735Z,1006.46
2019-04-05T00:50:03.089Z,1006.5
2019-04-05T00:55:02.498Z,1006.36
2019-04-05T01:00:02.844Z,1006.3
2019-04-05T01:05:03.171Z,1006.27
2019-04-05T01:10:02.600Z,1006.29
2019-04-05T01:15:02.978Z,1006.3
2019-04-05T01:20:02.363Z,1006.18
2019-04-05T01:25:02.813Z,1006.28
2019-04-05T01:30:03.248Z,1006.25
2019-04-05T01:35:02.673Z,1006.23
2019-04-05T01:40:03.116Z,1006.23
2019-04-05T01:45:02.531Z,1006.17
2019-04-05T01:50:02.908Z,1006.22
2019-04-05T01:55:03.356Z,1006.31
2019-04-05T02:00:02.784Z,1006.3
2019-04-05T02:05:03.220Z,1006.41
2019-04-05T02:10:02.698Z,1006.51
2019-04-05T02:15:03.048Z,1006.56
2019-04-05T02:20:02.463Z,1006.52
2019-04-05T02:25:02.821Z,1006.57
2019-04-05T02:30:03.171Z,1006.65
2019-04-05T02:35:02.523Z,1006.78
2019-04-05T02:40:03.015Z,1006.78
2019-04-05T02:45:02.432Z,1006.85
2019-04-05T02:50:02.772Z,1006.84
2019-04-05T02:55:03.126Z,1006.82
2019-04-05T03:00:02.526Z,1006.77
2019-04-05T03:05:02.955Z,1006.68
2019-04-05T03:10:01.619Z,1006.6
2019-04-05T03:15:03.032Z,1006.66
2019-04-05T03:20:02.403Z,1006.54
2019-04-05T03:25:02.800Z,1006.58
2019-04-05T03:30:03.145Z,1006.59
2019-04-05T03:35:02.716Z,1006.62
2019-04-05T03:40:03.210Z,1006.64
2019-04-05T03:45:02.670Z,1006.67
2019-04-05T03:50:03.104Z,1006.75
2019-04-05T03:55:02.528Z,1006.84
2019-04-05T04:00:02.928Z,1006.93
2019-04-05T04:05:03.275Z,1006.82
2019-04-05T04:10:02.706Z,1006.84
2019-04-05T04:15:03.139Z,1006.81
2019-04-05T04:20:02.555Z,1006.81
2019-04-05T04:25:02.932Z,1006.89
2019-04-05T04:30:02.827Z,1006.95
2019-04-05T04:35:03.168Z,1006.98
2019-04-05T04:40:02.561Z,1006.97
2019-04-05T04:45:12.051Z,1007.0
2019-04-05T04:50:03.064Z,1007.07
2019-04-05T04:55:02.479Z,1007.04
2019-04-05T05:00:02.819Z,1007.06
2019-04-05T05:05:03.169Z,1007.03
2019-04-05T05:10:03.405Z,1007.05
2019-04-05T05:15:03.025Z,1007.08
2019-04-05T05:20:02.472Z,1007.08
2019-04-05T05:25:02.806Z,1007.14
2019-04-05T05:30:03.237Z,1007.24
2019-04-05T05:35:02.733Z,1007.22
2019-04-05T05:40:03.197Z,1007.32
2019-04-05T05:45:02.515Z,1007.41
2019-04-05T05:50:02.860Z,1007.39
2019-04-05T05:55:03.300Z,1007.32
2019-04-05T06:00:02.723Z,1007.38
2019-04-05T06:05:03.068Z,1007.55
2019-04-05T06:10:02.470Z,1007.62
2019-04-05T06:15:03.022Z,1007.7
2019-04-05T06:20:02.467Z,1007.71
2019-04-05T06:25:02.881Z,1007.65
2019-04-05T06:30:03.328Z,1007.66
2019-04-05T06:35:02.784Z,1007.71
2019-04-05T06:40:03.189Z,1007.68
2019-04-05T06:45:02.636Z,1007.72
2019-04-05T06:50:03.067Z,1007.69
2019-04-05T06:55:02.502Z,1007.77
2019-04-05T07:00:03.119Z,1007.81
2019-04-05T07:05:02.579Z,1007.74
2019-04-05T07:10:03.100Z,1007.71
2019-04-05T07:15:02.540Z,1007.73
2019-04-05T07:20:02.967Z,1007.79
2019-04-05T07:25:02.402Z,1007.74
2019-04-05T07:30:02.804Z,1007.81
2019-04-05T07:35:03.153Z,1007.89
2019-04-05T07:40:02.565Z,1007.88
2019-04-05T07:45:02.913Z,1007.94
2019-04-05T07:50:03.259Z,1007.96
2019-04-05T07:55:02.671Z,1007.95
2019-04-05T08:00:03.013Z,1007.93
2019-04-05T08:05:02.441Z,1007.88
2019-04-05T08:10:03.201Z,1007.86
2019-04-05T08:15:02.703Z,1007.93
2019-04-05T08:20:03.171Z,1007.92
2019-04-05T08:25:02.581Z,1007.85
2019-04-05T08:30:03.022Z,1007.88
2019-04-05T08:35:02.437Z,1007.94
2019-04-05T08:40:02.887Z,1007.89
2019-04-05T08:45:03.322Z,1007.9
2019-04-05T08:50:02.000Z,1007.83
2019-04-05T08:55:02.366Z,1007.8
2019-04-05T09:00:02.726Z,1007.81
2019-04-05T09:05:03.146Z,1007.78
2019-04-05T09:10:02.569Z,1007.8
2019-04-05T09:15:03.002Z,1007.74
2019-04-05T09:20:02.427Z,1007.78
2019-04-05T09:25:02.869Z,1007.8
2019-04-05T09:30:03.217Z,1007.78
2019-04-05T09:35:02.568Z,1007.68
2019-04-05T09:40:03.065Z,1007.73
2019-04-05T09:45:02.492Z,1007.68
2019-04-05T09:50:02.838Z,1007.59
2019-04-05T09:55:03.180Z,1007.5
2019-04-05T10:00:02.586Z,1007.57
2019-04-05T10:05:02.932Z,1007.61
2019-04-05T10:10:02.359Z,1007.54
2019-04-05T10:15:02.687Z,1007.62
2019-04-05T10:20:03.129Z,1007.67
2019-04-05T10:25:02.553Z,1007.61
2019-04-05T10:30:02.899Z,1007.52
2019-04-05T10:35:03.238Z,1007.53
2019-04-05T10:40:02.660Z,1007.47
2019-04-05T10:45:03.003Z,1007.49
2019-04-05T10:50:03.588Z,1007.48
2019-04-05T10:55:03.166Z,1007.42
2019-04-05T11:00:02.583Z,1007.42
2019-04-05T11:05:02.959Z,1007.41
2019-04-05T11:10:02.484Z,1007.48
2019-04-05T11:15:02.887Z,1007.5
2019-04-05T11:20:06.959Z,1007.51
2019-04-05T11:25:03.262Z,1007.48
2019-04-05T11:30:01.785Z,1007.54
2019-04-05T11:35:03.121Z,1007.54
2019-04-05T11:40:02.543Z,1007.59
2019-04-05T11:45:02.884Z,1007.57
2019-04-05T11:50:03.206Z,1007.49
2019-04-05T11:55:04.607Z,1007.52
2019-04-05T12:00:03.190Z,1007.47
2019-04-05T12:05:02.614Z,1007.38
2019-04-05T12:10:03.047Z,1007.41
2019-04-05T12:15:02.463Z,1007.35
2019-04-05T12:20:03.539Z,1007.31
2019-04-05T12:25:03.617Z,1007.41
2019-04-05T12:30:03.094Z,1007.32
2019-04-05T12:35:02.602Z,1007.34
2019-04-05T12:40:05.103Z,1007.32
2019-04-05T12:45:02.688Z,1007.29
2019-04-05T12:50:03.019Z,1007.37
2019-04-05T12:55:02.431Z,1007.26
2019-04-05T13:00:02.789Z,1007.25
2019-04-05T13:05:03.221Z,1007.23
2019-04-05T13:10:02.664Z,1007.14
2019-04-05T13:15:12.247Z,1007.12
2019-04-05T13:20:02.284Z,1007.08
2019-04-05T13:25:02.744Z,1007.04
2019-04-05T13:30:03.170Z,1006.95
2019-04-05T13:35:02.607Z,1006.9
2019-04-05T13:40:02.993Z,1006.88
2019-04-05T13:45:02.352Z,1006.9
2019-04-05T13:50:02.699Z,1006.85
2019-04-05T13:55:03.038Z,1006.71
2019-04-05T14:00:02.554Z,1006.67
2019-04-05T14:05:03.120Z,1006.64
2019-04-05T14:10:02.554Z,1006.6
2019-04-05T14:15:02.944Z,1006.63
2019-04-05T14:20:02.498Z,1006.64
2019-04-05T14:25:02.921Z,1006.59
2019-04-05T14:30:03.322Z,1006.48
2019-04-05T14:35:02.691Z,1006.47
2019-04-05T14:40:03.128Z,1006.48
2019-04-05T14:45:02.548Z,1006.42
2019-04-05T14:50:02.994Z,1006.47
2019-04-05T14:55:02.415Z,1006.4
2019-04-05T15:00:02.865Z,1006.33
2019-04-05T15:05:03.307Z,1006.34
2019-04-05T15:10:03.905Z,1006.34
2019-04-05T15:15:02.313Z,1006.18
2019-04-05T15:20:04.629Z,1006.19
2019-04-05T15:25:03.447Z,1006.15
2019-04-05T15:30:02.952Z,1006.11
2019-04-05T15:35:03.315Z,1006.09
2019-04-05T15:40:02.713Z,1006.05
2019-04-05T15:45:03.060Z,1006.04
2019-04-05T15:50:02.475Z,1006.02
2019-04-05T15:55:03.721Z,1006.02
2019-04-05T16:00:04.748Z,1006.08
2019-04-05T16:05:02.983Z,1006.15
2019-04-05T16:10:02.440Z,1006.14
2019-04-05T16:15:02.889Z,1006.13
2019-04-05T16:20:03.447Z,1006.14
2019-04-05T16:25:03.860Z,1006.25
2019-04-05T16:30:02.366Z,1006.18
2019-04-05T16:35:02.820Z,1006.16
2019-04-05T16:40:03.337Z,1006.16
2019-04-05T16:45:02.686Z,1006.19
2019-04-05T16:50:03.089Z,1006.2
2019-04-05T16:55:01.769Z,1006.23
2019-04-05T17:00:03.150Z,1006.22
2019-04-05T17:05:02.557Z,1006.29
2019-04-05T17:10:02.953Z,1006.26
2019-04-05T17:15:03.279Z,1006.29
2019-04-05T17:20:02.676Z,1006.32
2019-04-05T17:25:03.315Z,1006.39
2019-04-05T17:30:02.643Z,1006.36
2019-04-05T17:35:03.081Z,1006.41
2019-04-05T17:40:02.497Z,1006.37
2019-04-05T17:45:02.864Z,1006.42
2019-04-05T17:50:03.193Z,1006.44
2019-04-05T17:55:02.638Z,1006.41
2019-04-05T18:00:03.039Z,1006.44
2019-04-05T18:05:02.367Z,1006.49
2019-04-05T18:10:02.753Z,1006.52
2019-04-05T18:15:03.144Z,1006.56
2019-04-05T18:20:02.575Z,1006.49
2019-04-05T18:25:02.919Z,1006.57
2019-04-05T18:30:03.350Z,1006.66
2019-04-05T18:35:02.765Z,1006.69
2019-04-05T18:40:03.154Z,1006.68
2019-04-05T18:45:02.478Z,1006.71
2019-04-05T18:50:03.495Z,1006.72
2019-04-05T18:55:03.008Z,1006.72
2019-04-05T19:00:02.338Z,1006.8
2019-04-05T19:05:02.776Z,1006.87
2019-04-05T19:10:03.318Z,1006.83
2019-04-05T19:15:02.730Z,1006.91
2019-04-05T19:20:03.085Z,1006.98
2019-04-05T19:25:04.812Z,1006.99
2019-04-05T19:50:02.765Z,1006.95
2019-04-05T19:55:03.152Z,1006.95
2019-04-05T20:00:02.522Z,1006.95
2019-04-05T20:05:02.859Z,1006.91
2019-04-05T20:10:03.344Z,1006.91
2019-04-05T20:15:02.683Z,1006.97
2019-04-05T20:20:03.102Z,1006.93
2019-04-05T20:25:02.479Z,1006.96
2019-04-05T20:30:02.898Z,1006.96
2019-04-05T20:35:03.307Z,1006.95
2019-04-05T20:40:02.790Z,1006.92
2019-04-05T20:45:03.169Z,1006.92
2019-04-05T20:50:02.538Z,1006.94
2019-04-05T20:55:02.923Z,1006.89
2019-04-05T21:00:03.276Z,1006.92
2019-04-05T21:05:02.655Z,1006.93
2019-04-05T21:10:03.082Z,1006.84
2019-04-05T21:15:02.507Z,1006.83
2019-04-05T21:20:02.893Z,1006.82
2019-04-05T21:25:03.337Z,1006.85
2019-04-05T21:30:02.662Z,1006.76
2019-04-05T21:35:03.066Z,1006.72
2019-04-05T21:40:02.511Z,1006.63
2019-04-05T21:45:02.918Z,1006.52
2019-04-05T21:50:03.401Z,1006.66
2019-04-05T21:55:02.809Z,1006.72
2019-04-05T22:00:03.574Z,1006.73
2019-04-05T22:05:03.020Z,1006.73
2019-04-05T22:10:02.545Z,1006.66
2019-04-05T22:15:03.007Z,1006.71
2019-04-05T22:20:02.525Z,1006.62
2019-04-05T22:25:02.968Z,1006.51
2019-04-05T22:30:02.521Z,1006.53
2019-04-05T22:35:03.007Z,1006.51
2019-04-05T22:40:02.588Z,1006.47
2019-04-05T22:45:03.093Z,1006.47
2019-04-05T22:50:02.623Z,1006.54
2019-04-05T22:55:11.068Z,1006.33
2019-04-05T23:00:02.782Z,1006.36
2019-04-05T23:05:02.627Z,1006.32
2019-04-05T23:10:03.135Z,1006.37
2019-04-05T23:15:02.589Z,1006.44
2019-04-05T23:20:03.030Z,1006.49
2019-04-05T23:25:02.552Z,1006.51
2019-04-05T23:30:02.959Z,1006.44
2019-04-05T23:35:02.404Z,1006.52
2019-04-05T23:40:02.929Z,1006.27
2019-04-05T23:45:03.373Z,1006.46
2019-04-05T23:50:02.812Z,1006.47
2019-04-05T23:55:03.348Z,1006.4
